createdAt,value
2023-10-20T00:00:26.938Z,7.6
2023-10-20T00:03:27.582Z,7.6
2023-10-20T00:05:28.470Z,7.6
2023-10-20T00:08:29.205Z,7.6
2023-10-20T00:11:30.266Z,7.6
2023-10-20T00:13:30.996Z,7.6
2023-10-20T00:18:31.612Z,7.6
2023-10-20T00:21:32.212Z,7.6
2023-10-20T00:23:32.862Z,7.6
2023-10-20T00:26:33.680Z,7.6
2023-10-20T00:28:34.408Z,7.6
2023-10-20T00:31:35.033Z,7.6
2023-10-20T00:33:35.797Z,7.6
2023-10-20T00:36:36.367Z,7.6
2023-10-20T00:38:37.196Z,7.6
2023-10-20T00:41:37.951Z,7.6
2023-10-20T00:43:38.677Z,7.6
2023-10-20T00:46:39.477Z,7.5
2023-10-20T00:48:40.106Z,7.5
2023-10-20T00:51:40.852Z,7.5
2023-10-20T00:53:41.887Z,7.5
2023-10-20T00:59:42.514Z,7.5
2023-10-20T01:01:43.080Z,7.5
2023-10-20T01:04:43.708Z,7.5
2023-10-20T01:06:44.375Z,7.5
2023-10-20T01:09:44.989Z,7.4
2023-10-20T01:11:45.621Z,7.5
2023-10-20T01:14:46.234Z,7.5
2023-10-20T01:16:46.891Z,7.5
2023-10-20T01:19:47.523Z,7.5
2023-10-20T01:21:48.118Z,7.5
2023-10-20T01:24:48.739Z,7.5
2023-10-20T01:26:49.457Z,7.5
2023-10-20T01:29:50.112Z,7.5
2023-10-20T01:32:50.701Z,7.6
2023-10-20T01:34:51.441Z,7.6
2023-10-20T01:39:52.058Z,7.6
2023-10-20T01:42:52.648Z,7.6
2023-10-20T01:44:53.353Z,7.6
2023-10-20T01:47:53.985Z,7.6
2023-10-20T01:49:54.883Z,7.6
2023-10-20T01:52:55.448Z,7.6
2023-10-20T01:54:56.032Z,7.6
2023-10-20T01:57:56.721Z,7.6
2023-10-20T01:59:57.338Z,7.6
2023-10-20T02:02:57.996Z,7.6
2023-10-20T02:04:59.224Z,7.6
2023-10-20T02:07:59.943Z,7.7
2023-10-20T02:10:00.707Z,7.7
2023-10-20T02:13:01.312Z,7.7
2023-10-20T02:15:01.920Z,7.7
2023-10-20T02:21:02.659Z,7.8
2023-10-20T02:23:03.288Z,7.8
2023-10-20T02:26:04.063Z,7.7
2023-10-20T02:28:04.745Z,7.7
2023-10-20T02:31:05.410Z,7.6
2023-10-20T02:33:06.163Z,7.6
2023-10-20T02:36:06.914Z,7.6
2023-10-20T02:38:07.547Z,7.6
2023-10-20T02:41:08.249Z,7.6
2023-10-20T02:43:08.985Z,7.7
2023-10-20T02:46:09.605Z,7.6
2023-10-20T02:48:10.280Z,7.7
2023-10-20T02:51:11.074Z,7.7
2023-10-20T02:53:11.743Z,7.7
2023-10-20T02:56:12.596Z,7.7
2023-10-20T03:01:13.324Z,7.7
2023-10-20T03:04:14.036Z,7.7
2023-10-20T03:06:14.851Z,7.8
2023-10-20T03:09:15.456Z,7.8
2023-10-20T03:11:16.103Z,7.7
2023-10-20T03:14:16.788Z,7.7
2023-10-20T03:16:17.545Z,7.8
2023-10-20T03:19:18.259Z,7.8
2023-10-20T03:21:18.826Z,7.8
2023-10-20T03:24:19.498Z,7.8
2023-10-20T03:26:20.169Z,7.8
2023-10-20T03:29:21.183Z,7.7
2023-10-20T03:31:21.978Z,7.8
2023-10-20T03:34:22.641Z,7.8
2023-10-20T03:36:23.239Z,7.8
2023-10-20T03:41:23.889Z,7.8
2023-10-20T03:44:24.683Z,7.8
2023-10-20T03:47:25.445Z,7.8
2023-10-20T03:49:26.248Z,7.8
2023-10-20T03:52:26.821Z,7.8
2023-10-20T03:54:27.427Z,7.8
2023-10-20T03:57:27.988Z,7.8
2023-10-20T03:59:28.614Z,7.8
2023-10-20T04:02:29.403Z,7.8
2023-10-20T04:04:30.232Z,7.8
2023-10-20T04:07:31.418Z,7.9
2023-10-20T04:09:31.990Z,7.9
2023-10-20T04:12:32.556Z,7.9
2023-10-20T04:14:33.453Z,7.9
2023-10-20T04:17:34.720Z,7.9
2023-10-20T04:22:35.609Z,7.9
2023-10-20T04:25:36.240Z,7.9
2023-10-20T04:27:36.835Z,7.9
2023-10-20T04:30:37.477Z,7.9
2023-10-20T04:32:38.237Z,7.9
2023-10-20T04:35:39.098Z,7.9
2023-10-20T04:37:39.827Z,7.9
2023-10-20T04:40:40.487Z,8.0
2023-10-20T04:42:41.232Z,7.9
2023-10-20T04:45:41.868Z,8.0
2023-10-20T04:47:42.579Z,7.9
2023-10-20T04:50:43.438Z,8.0
2023-10-20T04:52:44.223Z,8.0
2023-10-20T04:55:44.799Z,8.0
2023-10-20T04:58:45.412Z,8.0
2023-10-20T05:02:46.082Z,8.0
2023-10-20T05:05:46.991Z,8.0
2023-10-20T05:07:47.593Z,8.1
2023-10-20T05:10:48.159Z,8.2
2023-10-20T05:13:48.767Z,8.3
2023-10-20T05:15:49.665Z,8.3
2023-10-20T05:18:50.303Z,8.3
2023-10-20T05:20:50.886Z,8.4
2023-10-20T05:23:51.476Z,8.4
2023-10-20T05:25:52.313Z,8.4
2023-10-20T05:28:52.928Z,8.4
2023-10-20T05:30:53.516Z,8.5
2023-10-20T05:33:54.099Z,8.5
2023-10-20T05:35:54.694Z,8.4
2023-10-20T05:38:55.493Z,8.4
2023-10-20T05:43:56.179Z,8.4
2023-10-20T05:46:56.917Z,8.4
2023-10-20T05:48:57.636Z,8.4
2023-10-20T05:51:58.585Z,8.4
2023-10-20T05:53:59.276Z,8.4
2023-10-20T05:56:59.880Z,8.4
2023-10-20T05:59:00.484Z,8.4
2023-10-20T06:02:01.071Z,8.5
2023-10-20T06:04:01.712Z,8.6
2023-10-20T06:07:02.860Z,8.6
2023-10-20T06:09:03.473Z,8.6
2023-10-20T06:12:04.069Z,8.7
2023-10-20T06:14:04.787Z,8.7
2023-10-20T06:17:05.392Z,8.8
2023-10-20T06:19:06.029Z,8.8
2023-10-20T06:25:06.790Z,8.8
2023-10-20T06:27:07.369Z,8.8
2023-10-20T06:30:08.023Z,8.8
2023-10-20T06:32:08.595Z,8.9
2023-10-20T06:35:09.334Z,9.0
2023-10-20T06:37:10.038Z,9.0
2023-10-20T06:40:10.690Z,9.1
2023-10-20T06:42:11.306Z,9.2
2023-10-20T06:45:11.933Z,9.1
2023-10-20T06:47:12.561Z,9.2
2023-10-20T06:50:13.289Z,9.1
2023-10-20T06:52:14.103Z,9.1
2023-10-20T06:55:30.797Z,9.2
2023-10-20T06:57:13.553Z,9.2
2023-10-20T07:00:14.453Z,9.2
2023-10-20T07:05:15.037Z,9.2
2023-10-20T07:08:15.683Z,9.2
2023-10-20T07:10:16.344Z,9.2
2023-10-20T07:13:16.928Z,9.4
2023-10-20T07:15:17.503Z,9.3
2023-10-20T07:18:18.268Z,9.4
2023-10-20T07:20:19.258Z,9.4
2023-10-20T07:23:19.984Z,9.4
2023-10-20T07:25:20.739Z,9.4
2023-10-20T07:28:21.335Z,9.4
2023-10-20T07:30:22.092Z,9.4
2023-10-20T07:33:22.761Z,9.4
2023-10-20T07:35:23.555Z,9.5
2023-10-20T07:38:24.282Z,9.5
2023-10-20T07:40:25.436Z,9.6
2023-10-20T07:45:26.064Z,9.7
2023-10-20T07:48:26.784Z,9.8
2023-10-20T07:51:27.577Z,9.8
2023-10-20T07:53:28.368Z,9.9
2023-10-20T07:56:29.100Z,9.9
2023-10-20T07:58:29.795Z,9.9
2023-10-20T08:01:30.439Z,10.0
2023-10-20T08:03:31.432Z,10.1
2023-10-20T08:06:33.030Z,10.2
2023-10-20T08:08:34.617Z,10.1
2023-10-20T08:11:35.561Z,10.1
2023-10-20T08:13:36.259Z,10.2
2023-10-20T08:16:36.962Z,10.2
2023-10-20T08:18:37.658Z,10.2
2023-10-20T08:21:38.318Z,10.2
2023-10-20T08:26:38.946Z,10.3
2023-10-20T08:29:39.683Z,10.3
2023-10-20T08:31:40.621Z,10.3
2023-10-20T08:34:41.437Z,10.4
2023-10-20T08:36:42.068Z,10.4
2023-10-20T08:39:42.866Z,10.4
2023-10-20T08:41:44.470Z,10.4
2023-10-20T08:44:45.399Z,10.4
2023-10-20T08:46:46.239Z,10.3
2023-10-20T08:49:47.202Z,10.4
2023-10-20T08:51:47.817Z,10.4
2023-10-20T08:54:48.391Z,10.4
2023-10-20T08:56:49.009Z,10.5
2023-10-20T08:59:49.754Z,10.5
2023-10-20T09:01:50.524Z,10.5
2023-10-20T09:06:51.202Z,10.6
2023-10-20T09:09:51.811Z,10.8
2023-10-20T09:11:52.442Z,10.8
2023-10-20T09:14:53.142Z,11.0
2023-10-20T09:16:53.865Z,11.1
2023-10-20T09:19:56.042Z,11.0
2023-10-20T09:22:57.070Z,11.0
2023-10-20T09:25:00.371Z,11.0
2023-10-20T09:28:04.290Z,11.1
2023-10-20T09:30:10.312Z,11.0
2023-10-20T09:32:12.973Z,11.0
2023-10-20T09:35:13.963Z,11.1
2023-10-20T09:38:14.869Z,11.2
2023-10-20T09:40:15.536Z,11.2
2023-10-20T09:43:25.338Z,11.3
2023-10-20T09:48:27.390Z,11.5
2023-10-20T09:50:28.234Z,11.6
2023-10-20T09:53:28.870Z,11.6
2023-10-20T09:55:29.551Z,11.6
2023-10-20T09:58:30.188Z,11.5
2023-10-20T10:00:31.241Z,11.4
2023-10-20T10:03:31.978Z,11.4
2023-10-20T10:05:33.007Z,11.3
2023-10-20T10:08:33.790Z,11.4
2023-10-20T10:10:34.428Z,11.2
2023-10-20T10:13:35.020Z,11.2
2023-10-20T10:15:35.688Z,11.2
2023-10-20T10:18:36.376Z,11.2
2023-10-20T10:20:37.111Z,11.2
2023-10-20T10:23:37.878Z,11.1
2023-10-20T10:28:38.568Z,11.1
2023-10-20T10:30:39.171Z,11.1
2023-10-20T10:33:39.836Z,11.1
2023-10-20T10:35:40.772Z,11.2
2023-10-20T10:38:41.576Z,11.2
2023-10-20T10:41:42.327Z,11.2
2023-10-20T10:43:43.017Z,11.4
2023-10-20T10:46:43.634Z,11.6
2023-10-20T10:48:45.681Z,11.7
2023-10-20T10:51:46.597Z,11.7
2023-10-20T10:53:47.223Z,12.0
2023-10-20T10:56:48.000Z,11.9
2023-10-20T11:01:48.752Z,12.0
2023-10-20T11:03:49.483Z,12.0
2023-10-20T11:08:50.486Z,12.1
2023-10-20T11:11:51.214Z,12.3
2023-10-20T11:14:52.037Z,12.4
2023-10-20T11:16:52.712Z,12.5
2023-10-20T11:19:53.517Z,12.6
2023-10-20T11:21:54.133Z,12.7
2023-10-20T11:24:54.760Z,12.8
2023-10-20T11:26:55.436Z,12.7
2023-10-20T11:29:59.208Z,12.4
2023-10-20T11:32:00.360Z,12.5
2023-10-20T11:35:00.969Z,12.7
2023-10-20T11:37:01.644Z,12.7
2023-10-20T11:40:02.262Z,12.8
2023-10-20T11:42:02.850Z,12.8
2023-10-20T11:45:03.424Z,12.8
2023-10-20T11:50:04.035Z,12.9
2023-10-20T11:52:04.625Z,13.0
2023-10-20T11:55:05.239Z,13.0
2023-10-20T11:58:05.855Z,13.0
2023-10-20T12:00:06.509Z,12.9
2023-10-20T12:03:07.154Z,12.8
2023-10-20T12:05:08.049Z,12.8
2023-10-20T12:08:08.651Z,12.9
2023-10-20T12:10:09.252Z,12.8
2023-10-20T12:13:09.929Z,12.9
2023-10-20T12:15:10.600Z,12.8
2023-10-20T12:18:11.269Z,12.9
2023-10-20T12:20:12.181Z,13.0
2023-10-20T12:23:12.756Z,13.0
2023-10-20T12:25:13.394Z,13.0
2023-10-20T12:30:14.009Z,13.0
2023-10-20T12:33:14.736Z,13.0
2023-10-20T12:35:15.749Z,12.9
2023-10-20T12:38:16.443Z,12.9
2023-10-20T12:40:17.065Z,12.8
2023-10-20T12:43:17.686Z,12.8
2023-10-20T12:46:18.302Z,12.9
2023-10-20T12:48:19.086Z,12.9
2023-10-20T12:51:20.011Z,13.0
2023-10-20T12:53:20.634Z,12.9
2023-10-20T12:56:21.312Z,12.8
2023-10-20T12:58:21.993Z,12.8
2023-10-20T13:01:22.659Z,12.9
2023-10-20T13:03:23.490Z,13.0
2023-10-20T13:06:24.469Z,13.0
2023-10-20T13:11:25.088Z,13.0
2023-10-20T13:13:25.788Z,13.0
2023-10-20T13:16:26.481Z,13.0
2023-10-20T13:19:27.178Z,13.0
2023-10-20T13:21:27.842Z,13.1
2023-10-20T13:24:28.412Z,13.1
2023-10-20T13:26:29.069Z,13.1
2023-10-20T13:29:29.820Z,13.0
2023-10-20T13:31:30.501Z,12.9
2023-10-20T13:34:31.309Z,12.7
2023-10-20T13:36:31.970Z,12.6
2023-10-20T13:39:32.904Z,12.5
2023-10-20T13:41:33.753Z,12.5
2023-10-20T13:44:34.464Z,12.4
2023-10-20T13:46:35.308Z,12.5
2023-10-20T13:51:36.010Z,12.6
2023-10-20T13:54:36.632Z,12.5
2023-10-20T13:56:37.267Z,12.6
2023-10-20T13:59:38.073Z,12.6
2023-10-20T14:01:38.864Z,12.5
2023-10-20T14:04:39.686Z,12.4
2023-10-20T14:06:40.440Z,12.4
2023-10-20T14:09:41.013Z,12.4
2023-10-20T14:12:41.636Z,12.4
2023-10-20T14:14:42.243Z,12.2
2023-10-20T14:17:42.985Z,12.3
2023-10-20T14:19:43.789Z,12.3
2023-10-20T14:22:44.410Z,12.4
2023-10-20T14:24:44.997Z,12.4
2023-10-20T14:27:45.624Z,12.4
2023-10-20T14:32:46.267Z,12.4
2023-10-20T14:34:47.132Z,12.3
2023-10-20T14:37:47.976Z,12.3
2023-10-20T14:39:48.585Z,12.2
2023-10-20T14:42:49.230Z,12.1
2023-10-20T14:45:49.845Z,12.0
2023-10-20T14:47:50.664Z,12.0
2023-10-20T14:50:51.595Z,12.0
2023-10-20T14:52:52.372Z,11.9
2023-10-20T14:55:52.965Z,11.9
2023-10-20T14:57:53.567Z,11.9
2023-10-20T15:00:54.136Z,11.8
2023-10-20T15:02:54.853Z,11.8
2023-10-20T15:05:55.959Z,11.8
2023-10-20T15:07:56.825Z,11.8
2023-10-20T15:12:57.651Z,11.8
2023-10-20T15:15:58.275Z,11.8
2023-10-20T15:17:59.067Z,11.8
2023-10-20T15:20:59.899Z,11.9
2023-10-20T15:23:14.771Z,11.9
2023-10-20T15:26:19.368Z,11.9
2023-10-20T15:28:20.026Z,11.9
2023-10-20T15:31:20.650Z,12.0
2023-10-20T15:33:21.489Z,11.9
2023-10-20T15:36:22.361Z,11.9
2023-10-20T15:38:23.047Z,11.9
2023-10-20T15:41:23.850Z,11.9
2023-10-20T15:43:24.594Z,11.9
2023-10-20T15:46:25.207Z,11.8
2023-10-20T15:48:26.037Z,11.7
2023-10-20T15:54:27.028Z,11.7
2023-10-20T15:56:27.711Z,11.7
2023-10-20T15:59:28.412Z,11.7
2023-10-20T16:01:29.144Z,11.7
2023-10-20T16:04:29.934Z,11.6
2023-10-20T16:06:30.626Z,11.6
2023-10-20T16:09:31.246Z,11.6
2023-10-20T16:11:31.850Z,11.6
2023-10-20T16:14:32.595Z,11.6
2023-10-20T16:16:33.269Z,11.6
2023-10-20T16:19:34.118Z,11.6
2023-10-20T16:21:35.310Z,11.7
2023-10-20T16:24:35.932Z,11.7
2023-10-20T16:29:36.835Z,11.8
2023-10-20T16:34:38.360Z,11.9
2023-10-20T16:36:38.981Z,11.9
2023-10-20T16:39:39.616Z,12.0
2023-10-20T16:42:40.203Z,12.0
2023-10-20T16:44:40.867Z,12.0
2023-10-20T16:47:41.708Z,11.9
2023-10-20T16:49:42.598Z,12.0
2023-10-20T16:52:43.177Z,12.0
2023-10-20T16:54:43.773Z,12.0
2023-10-20T16:57:44.369Z,12.0
2023-10-20T16:59:44.980Z,12.0
2023-10-20T17:02:45.726Z,12.0
2023-10-20T17:04:46.726Z,11.8
2023-10-20T17:07:47.547Z,11.8
2023-10-20T17:09:48.184Z,11.7
2023-10-20T17:15:48.789Z,11.6
2023-10-20T17:17:49.481Z,11.6
2023-10-20T17:20:50.431Z,11.5
2023-10-20T17:22:51.256Z,11.5
2023-10-20T17:25:51.859Z,11.4
2023-10-20T17:27:52.440Z,11.4
2023-10-20T17:30:53.087Z,11.4
2023-10-20T17:32:53.727Z,11.4
2023-10-20T17:35:54.546Z,11.3
2023-10-20T17:37:55.279Z,11.3
2023-10-20T17:40:55.857Z,11.3
2023-10-20T17:42:56.456Z,11.2
2023-10-20T17:45:57.136Z,11.1
2023-10-20T17:47:58.104Z,11.0
2023-10-20T17:50:59.375Z,11.0
2023-10-20T17:56:00.190Z,10.9
2023-10-20T17:58:00.767Z,10.9
2023-10-20T18:01:01.517Z,10.8
2023-10-20T18:03:02.441Z,10.8
2023-10-20T18:06:03.851Z,10.8
2023-10-20T18:09:05.511Z,10.8
2023-10-20T18:11:06.444Z,10.8
2023-10-20T18:14:07.036Z,10.8
2023-10-20T18:16:07.678Z,10.7
2023-10-20T18:19:08.361Z,10.7
2023-10-20T18:21:09.085Z,10.7
2023-10-20T18:24:09.849Z,10.6
2023-10-20T18:26:10.597Z,10.6
2023-10-20T18:29:11.303Z,10.6
2023-10-20T18:31:11.920Z,10.6
2023-10-20T18:36:13.126Z,10.5
2023-10-20T18:39:13.788Z,10.4
2023-10-20T18:42:14.428Z,10.4
2023-10-20T18:44:15.002Z,10.4
2023-10-20T18:47:15.623Z,10.4
2023-10-20T18:49:16.177Z,10.4
2023-10-20T18:52:16.853Z,10.3
2023-10-20T18:54:17.432Z,10.3
2023-10-20T18:57:18.073Z,10.3
2023-10-20T18:59:18.789Z,10.2
2023-10-20T19:02:19.413Z,10.2
2023-10-20T19:04:20.163Z,10.1
2023-10-20T19:07:20.764Z,10.1
2023-10-20T19:09:21.407Z,10.0
2023-10-20T19:12:22.212Z,10.0
2023-10-20T19:17:22.821Z,10.0
2023-10-20T19:19:23.391Z,10.0
2023-10-20T19:22:23.967Z,10.0
2023-10-20T19:24:24.593Z,10.0
2023-10-20T19:27:25.223Z,10.0
2023-10-20T19:29:26.014Z,10.0
2023-10-20T19:32:26.629Z,10.0
2023-10-20T19:35:27.328Z,10.0
2023-10-20T19:37:27.923Z,9.9
2023-10-20T19:40:28.544Z,9.9
2023-10-20T19:42:29.197Z,10.0
2023-10-20T19:45:29.793Z,10.0
2023-10-20T19:47:30.492Z,10.0
2023-10-20T19:50:31.338Z,10.0
2023-10-20T19:52:32.050Z,10.0
2023-10-20T19:57:32.725Z,10.0
2023-10-20T20:00:33.404Z,10.0
2023-10-20T20:02:34.617Z,9.9
2023-10-20T20:05:35.675Z,9.9
2023-10-20T20:08:36.610Z,9.9
2023-10-20T20:10:37.333Z,9.8
2023-10-20T20:13:38.001Z,9.8
2023-10-20T20:15:38.599Z,9.8
2023-10-20T20:18:39.296Z,9.8
2023-10-20T20:20:40.330Z,9.7
2023-10-20T20:23:41.022Z,9.7
2023-10-20T20:25:41.770Z,9.7
2023-10-20T20:28:42.440Z,9.8
2023-10-20T20:30:43.045Z,9.8
2023-10-20T20:33:43.654Z,9.7
2023-10-20T20:38:44.749Z,9.7
2023-10-20T20:41:45.394Z,9.7
2023-10-20T20:43:46.160Z,9.8
2023-10-20T20:45:46.778Z,9.8
2023-10-20T20:48:47.531Z,9.8
2023-10-20T20:50:48.298Z,9.7
2023-10-20T20:53:49.092Z,9.8
2023-10-20T20:55:49.766Z,9.7
2023-10-20T20:58:50.354Z,9.7
2023-10-20T21:01:51.041Z,9.8
2023-10-20T21:03:51.721Z,9.8
2023-10-20T21:06:52.683Z,9.7
2023-10-20T21:08:53.338Z,9.8
2023-10-20T21:11:54.119Z,9.7
2023-10-20T21:13:54.900Z,9.7
2023-10-20T21:18:55.520Z,9.7
2023-10-20T21:21:56.099Z,9.6
2023-10-20T21:23:56.728Z,9.6
2023-10-20T21:26:57.514Z,9.5
2023-10-20T21:29:58.307Z,9.4
2023-10-20T21:31:58.968Z,9.4
2023-10-20T21:34:59.604Z,9.3
2023-10-20T21:37:00.171Z,9.2
2023-10-20T21:40:00.779Z,9.2
2023-10-20T21:42:03.047Z,9.1
2023-10-20T21:45:06.835Z,9.1
2023-10-20T21:47:07.599Z,9.1
2023-10-20T21:50:08.209Z,9.0
2023-10-20T21:52:08.816Z,9.0
2023-10-20T21:55:09.460Z,8.9
2023-10-20T22:00:10.284Z,9.0
2023-10-20T22:02:11.020Z,9.0
2023-10-20T22:05:11.744Z,9.1
2023-10-20T22:07:12.329Z,9.0
2023-10-20T22:10:12.956Z,9.0
2023-10-20T22:12:13.587Z,8.9
2023-10-20T22:15:14.388Z,8.9
2023-10-20T22:17:15.092Z,8.9
2023-10-20T22:20:15.706Z,8.9
2023-10-20T22:23:16.277Z,8.9
2023-10-20T22:25:16.901Z,8.9
2023-10-20T22:28:17.514Z,8.9
2023-10-20T22:30:18.158Z,8.9
2023-10-20T22:33:19.095Z,8.9
2023-10-20T22:35:20.197Z,8.9
2023-10-20T22:40:20.828Z,8.8
2023-10-20T22:43:21.521Z,8.8
2023-10-20T22:45:22.119Z,8.8
2023-10-20T22:48:22.861Z,8.7
2023-10-20T22:50:23.745Z,8.7
2023-10-20T22:53:24.414Z,8.7
2023-10-20T22:56:25.003Z,8.7
2023-10-20T22:58:25.583Z,8.7
2023-10-20T23:01:26.224Z,8.6
2023-10-20T23:03:27.308Z,8.6
2023-10-20T23:06:28.348Z,8.6
2023-10-20T23:08:28.951Z,8.6
2023-10-20T23:11:29.556Z,8.6
2023-10-20T23:13:30.147Z,8.6
2023-10-20T23:16:30.868Z,8.6
2023-10-20T23:21:31.698Z,8.4
2023-10-20T23:23:32.272Z,8.4
2023-10-20T23:26:32.841Z,8.4
2023-10-20T23:28:33.602Z,8.4
2023-10-20T23:31:34.230Z,8.4
2023-10-20T23:33:34.843Z,8.4
2023-10-20T23:36:35.683Z,8.4
2023-10-20T23:38:36.269Z,8.4
2023-10-20T23:41:36.870Z,8.4
2023-10-20T23:44:37.650Z,8.4
2023-10-20T23:46:38.422Z,8.4
2023-10-20T23:49:39.036Z,8.4
2023-10-20T23:51:39.657Z,8.4
2023-10-20T23:54:40.251Z,8.4
2023-10-20T23:56:40.876Z,8.4
